Time;durP1;ratioP1;P1;durP2;ratioP2;P2;SDS_P1;SDS_P2;PMS_P1;PMS_P2;Temp;Humidity;BMP_temperature;BMP_pressure;BME280_temperature;BME280_humidity;BME280_pressure;Samples;Min_cycle;Max_cycle;Signal;HPM_P1;HPM_P2
2022/05/26 00:00:23;;;;;;;2.13;1.30;;;15.50;99.90;;;-141.84;47.65;19122.91;5078237;28;20793;-54
2022/05/26 00:02:51;;;;;;;1.23;1.10;;;15.60;99.90;;;-141.84;48.13;19102.56;5077756;28;20295;-56
2022/05/26 00:05:19;;;;;;;2.45;1.20;;;15.50;99.90;;;-141.84;47.22;19135.09;5076934;28;20546;-55
2022/05/26 00:07:47;;;;;;;3.17;1.10;;;15.50;99.90;;;-141.84;47.67;19129.00;5070274;28;20295;-54
2022/05/26 00:10:15;;;;;;;2.47;0.95;;;15.50;99.90;;;-141.84;47.53;19088.34;5074694;28;20240;-54
2022/05/26 00:12:44;;;;;;;2.78;1.20;;;15.50;99.90;;;-141.84;47.46;19155.41;5072892;28;20215;-58
2022/05/26 00:15:15;;;;;;;1.10;1.00;;;15.60;99.90;;;-141.84;47.12;19131.03;5074729;28;20619;-58
2022/05/26 00:17:43;;;;;;;2.15;1.20;;;15.60;99.90;;;-141.84;48.19;19104.59;5074563;28;20299;-55
2022/05/26 00:20:12;;;;;;;1.70;0.98;;;15.60;99.90;;;-141.84;48.09;19094.44;5074947;28;20222;-58
2022/05/26 00:22:40;;;;;;;1.00;1.00;;;15.60;99.90;;;-141.84;48.19;19098.50;5074915;28;20211;-56
2022/05/26 00:25:09;;;;;;;1.63;1.03;;;15.60;99.90;;;-141.84;48.31;19116.81;5074469;28;20291;-56
2022/05/26 00:27:37;;;;;;;1.73;1.05;;;15.50;99.90;;;-141.84;48.82;19074.13;5074706;28;20228;-55
2022/05/26 00:30:07;;;;;;;1.30;0.80;;;15.50;99.90;;;-141.84;48.74;19076.16;5074622;28;20292;-54
2022/05/26 00:32:37;;;;;;;1.38;1.10;;;15.50;99.90;;;-141.84;48.79;19090.38;5075116;28;20279;-55
2022/05/26 00:35:07;;;;;;;2.22;1.02;;;15.40;99.90;;;-141.84;48.75;19086.31;5074478;28;20685;-57
2022/05/26 00:37:36;;;;;;;2.17;0.90;;;15.40;99.90;;;-141.84;49.45;19076.16;5074335;28;20766;-56
2022/05/26 00:40:06;;;;;;;1.13;0.90;;;15.40;99.90;;;-141.84;49.52;19061.94;5073688;28;20751;-53
2022/05/26 00:42:34;;;;;;;1.47;0.90;;;15.30;99.90;;;-141.84;49.47;19037.56;5074117;28;20201;-57
2022/05/26 00:45:02;;;;;;;1.58;0.90;;;15.30;99.90;;;-141.84;49.86;19037.56;5074279;28;20224;-57
2022/05/26 00:47:34;;;;;;;1.50;1.07;;;15.20;99.90;;;-141.84;49.32;19033.50;5074029;28;20671;-56
2022/05/26 00:50:13;;;;;;;0.93;0.80;;;15.20;99.90;;;-141.84;49.76;19029.44;5073798;28;20763;-57
2022/05/26 00:52:47;;;;;;;0.80;0.80;;;15.20;99.90;;;-141.84;49.88;19053.81;5074110;28;20276;-55
2022/05/26 00:55:22;;;;;;;1.03;0.90;;;15.20;99.90;;;-141.84;49.44;19043.66;5073483;28;20295;-54
2022/05/26 00:57:55;;;;;;;1.33;0.80;;;15.20;99.90;;;-141.84;50.14;19049.75;5074167;28;20633;-53
2022/05/26 01:00:29;;;;;;;1.13;0.90;;;15.20;99.90;;;-141.84;49.84;19037.56;5074140;28;20185;-55
2022/05/26 01:03:08;;;;;;;2.40;0.83;;;15.20;99.90;;;-141.84;48.19;19102.56;5074180;28;20230;-57
2022/05/26 01:05:47;;;;;;;2.00;0.70;;;15.30;99.90;;;-141.84;48.22;19108.69;5074194;28;20189;-52
2022/05/26 01:08:24;;;;;;;1.30;0.90;;;15.40;99.90;;;-141.84;46.98;19183.84;5073579;28;20272;-58
2022/05/26 01:10:54;;;;;;;2.15;0.90;;;15.50;99.90;;;-141.84;47.38;19167.59;5073374;28;20223;-56
2022/05/26 01:13:23;;;;;;;3.33;0.90;;;15.60;99.90;;;-141.84;47.11;19177.75;5072978;28;20560;-56
2022/05/26 01:16:02;;;;;;;1.00;0.90;;;15.70;99.90;;;-141.84;47.50;19139.16;5073371;28;20606;-55
2022/05/26 01:18:52;;;;;;;1.38;0.75;;;15.70;99.90;;;-141.84;46.61;19185.88;5073605;28;20181;-56
2022/05/26 01:21:30;;;;;;;2.40;0.80;;;15.70;99.90;;;-141.84;46.65;19175.72;5073499;28;20303;-55
2022/05/26 01:24:47;;;;;;;2.00;0.70;;;15.80;99.90;;;-141.84;46.84;19202.16;5073279;28;20189;-56
2022/05/26 01:27:33;;;;;;;1.10;0.70;;;15.80;99.90;;;-141.84;46.65;19149.31;5073461;28;20268;-54
2022/05/26 01:30:33;;;;;;;1.33;0.80;;;15.70;99.90;;;-141.84;46.14;19167.59;5073221;28;20191;-55
2022/05/26 01:33:30;;;;;;;2.17;0.90;;;15.90;99.90;;;-141.84;46.38;19155.41;5073358;28;20225;-51
2022/05/26 01:36:14;;;;;;;1.08;0.80;;;15.90;99.90;;;-141.84;46.68;19159.47;5073880;28;20273;-53
2022/05/26 01:38:58;;;;;;;1.47;0.70;;;15.90;99.90;;;-141.84;46.21;19204.19;5073080;28;20663;-55
2022/05/26 01:42:08;;;;;;;1.23;0.77;;;15.90;99.90;;;-141.84;46.48;19179.78;5072484;28;20212;-53
2022/05/26 01:44:53;;;;;;;1.20;0.70;;;15.90;99.90;;;-141.84;46.59;19159.47;5073080;28;20288;-53
2022/05/26 01:47:37;;;;;;;1.20;0.85;;;15.90;99.90;;;-141.84;46.57;19179.78;5073231;28;20185;-57
2022/05/26 01:50:22;;;;;;;0.80;0.80;;;15.90;99.90;;;-141.84;46.29;19185.88;5073159;28;20193;-55
2022/05/26 01:53:08;;;;;;;0.80;0.80;;;15.90;99.90;;;-141.84;46.77;19163.53;5073023;28;20189;-56
2022/05/26 01:55:47;;;;;;;2.78;0.60;;;15.90;99.90;;;-141.84;47.34;19143.22;5072631;28;20585;-53
2022/05/26 01:58:24;;;;;;;0.90;0.75;;;15.80;99.90;;;-141.84;47.01;19143.22;5072741;28;20307;-58
2022/05/26 02:00:55;;;;;;;1.02;0.70;;;15.80;99.90;;;-141.84;47.37;19159.47;5073087;28;20185;-55
2022/05/26 02:03:29;;;;;;;1.00;0.75;;;15.80;99.90;;;-141.84;47.58;19126.97;5072743;28;20541;-54
2022/05/26 02:06:12;;;;;;;1.90;1.30;;;15.70;99.90;;;-141.84;47.33;19153.38;5072471;28;20221;-55
2022/05/26 02:08:48;;;;;;;1.65;0.95;;;15.70;99.90;;;-141.84;47.67;19163.53;5072443;28;20180;-53
2022/05/26 02:11:20;;;;;;;1.23;0.70;;;15.70;99.90;;;-141.84;48.10;19082.25;5072422;28;20272;-56
2022/05/26 02:13:54;;;;;;;1.95;1.10;;;15.60;99.90;;;-141.84;47.98;19131.03;5072697;28;20232;-54
2022/05/26 02:16:33;;;;;;;1.03;0.80;;;15.60;99.90;;;-141.84;48.28;19116.81;5072806;28;20283;-54
2022/05/26 02:19:12;;;;;;;2.13;0.70;;;15.60;99.90;;;-141.84;48.19;19110.72;5072386;28;20188;-55
2022/05/26 02:21:47;;;;;;;1.13;0.80;;;15.60;99.90;;;-141.84;47.92;19106.66;5071986;28;20184;-57
2022/05/26 02:24:22;;;;;;;1.85;0.70;;;15.60;99.90;;;-141.84;48.00;19145.25;5072379;28;20302;-56
2022/05/26 02:26:51;;;;;;;1.07;0.97;;;15.60;99.90;;;-141.84;47.93;19118.84;5072686;28;20267;-55
2022/05/26 02:32:08;;;;;;;1.67;0.80;;;15.60;99.90;;;-141.84;48.26;19110.72;5071797;28;20196;-56
2022/05/26 02:34:38;;;;;;;2.57;0.90;;;15.50;99.90;;;-141.84;47.71;19133.06;5071751;28;20455;-56
2022/05/26 02:37:10;;;;;;;2.17;0.90;;;15.60;99.90;;;-141.84;47.97;19102.56;5072355;28;20221;-51
2022/05/26 02:39:38;;;;;;;1.60;0.98;;;15.60;99.90;;;-141.84;47.88;19110.72;5071753;28;20219;-56
2022/05/26 02:42:08;;;;;;;1.33;0.90;;;15.60;99.90;;;-141.84;48.50;19086.31;5072011;28;20215;-52
2022/05/26 02:44:37;;;;;;;2.53;0.87;;;15.60;99.90;;;-141.84;48.14;19106.66;5071840;28;20287;-54
2022/05/26 02:47:35;;;;;;;1.75;0.82;;;15.60;99.90;;;-141.84;48.65;19133.06;5071749;28;20205;-54
2022/05/26 02:50:19;;;;;;;0.73;0.73;;;15.50;99.90;;;-141.84;48.59;19084.28;5071689;28;20227;-55
2022/05/26 02:53:05;;;;;;;1.63;0.80;;;15.50;99.90;;;-141.84;49.17;19104.59;5072039;28;20280;-55
2022/05/26 02:55:53;;;;;;;1.85;0.68;;;15.50;99.90;;;-141.84;49.31;19086.31;5071868;28;20192;-58
2022/05/26 02:58:41;;;;;;;2.05;1.00;;;15.40;99.90;;;-141.84;49.18;19078.19;5071794;28;20211;-59
2022/05/26 03:01:20;;;;;;;1.40;0.80;;;15.40;99.90;;;-141.84;48.83;19094.44;5071576;28;20607;-54
2022/05/26 03:03:53;;;;;;;0.83;0.70;;;15.40;99.90;;;-141.84;49.25;19063.97;5071900;28;20192;-54
2022/05/26 03:06:29;;;;;;;0.83;0.83;;;15.40;99.90;;;-141.84;49.23;19080.22;5071979;28;20191;-56
2022/05/26 03:09:02;;;;;;;3.10;0.93;;;15.40;99.90;;;-141.84;48.46;19088.34;5071403;28;20188;-53
2022/05/26 03:11:34;;;;;;;1.23;0.95;;;15.50;99.90;;;-141.84;48.51;19120.88;5071595;28;20192;-54
2022/05/26 03:14:02;;;;;;;1.52;0.90;;;15.50;99.90;;;-141.84;48.64;19106.66;5071776;28;20232;-56
2022/05/26 03:16:30;;;;;;;2.60;0.70;;;15.50;99.90;;;-141.84;49.26;19080.22;5071821;28;20631;-55
2022/05/26 03:18:59;;;;;;;2.88;0.98;;;15.50;99.90;;;-141.84;48.31;19102.56;5071764;28;20217;-55
2022/05/26 03:21:27;;;;;;;0.83;0.77;;;15.60;99.90;;;-141.84;48.36;19088.34;5071955;28;20299;-55
2022/05/26 03:23:55;;;;;;;1.10;1.00;;;15.60;99.90;;;-141.84;49.17;19090.38;5071961;28;20211;-52
2022/05/26 03:26:24;;;;;;;1.60;0.80;;;15.60;99.90;;;-141.84;48.72;19096.47;5072245;28;20299;-55
2022/05/26 03:28:52;;;;;;;1.30;0.80;;;15.60;99.90;;;-141.84;48.91;19078.19;5071131;28;20639;-54
2022/05/26 03:31:20;;;;;;;1.07;0.97;;;15.50;99.90;;;-141.84;48.92;19092.41;5072011;28;20207;-55
2022/05/26 03:42:09;;;;;;;0.77;0.70;;;15.70;99.90;;;-141.84;48.59;19112.75;5073215;28;20296;-54
2022/05/26 03:44:37;;;;;;;3.00;0.73;;;15.70;99.90;;;-141.84;49.04;19106.66;5075063;28;20200;-59
2022/05/26 03:47:07;;;;;;;4.57;0.93;;;15.70;99.90;;;-141.84;48.51;19153.38;5075878;28;20207;-56
2022/05/26 03:49:34;;;;;;;3.53;0.77;;;15.70;99.90;;;-141.84;48.62;19100.53;5074879;28;20232;-54
2022/05/26 03:52:03;;;;;;;1.43;0.80;;;15.70;99.90;;;-141.84;48.29;19129.00;5075145;28;20207;-54
2022/05/26 03:54:33;;;;;;;1.45;0.70;;;15.80;99.90;;;-141.84;48.62;19131.03;5075099;28;20651;-57
2022/05/26 03:57:01;;;;;;;1.85;0.90;;;15.70;99.90;;;-141.84;48.71;19139.16;5075219;28;20215;-54
2022/05/26 03:59:30;;;;;;;2.47;1.00;;;15.80;99.90;;;-141.84;49.50;19092.41;5073966;28;20704;-54
2022/05/26 04:01:58;;;;;;;1.55;1.10;;;15.80;99.90;;;-141.84;48.68;19137.13;5074234;28;20204;-56
2022/05/26 04:04:26;;;;;;;2.05;0.90;;;15.80;99.90;;;-141.84;48.59;19092.41;5075003;28;20280;-57
2022/05/26 04:06:54;;;;;;;1.95;0.90;;;15.90;99.90;;;-141.84;48.60;19141.19;5075222;28;20303;-56
2022/05/26 04:09:22;;;;;;;1.88;0.90;;;15.90;99.90;;;-141.84;48.50;19161.50;5074797;28;20197;-55
2022/05/26 04:11:50;;;;;;;0.83;0.70;;;15.90;99.90;;;-141.84;48.57;19122.91;5074826;28;20197;-56
2022/05/26 04:14:18;;;;;;;1.85;0.90;;;16.00;99.90;;;-141.84;47.95;19173.69;5074387;28;20211;-54
2022/05/26 04:16:47;;;;;;;1.50;0.82;;;16.10;99.90;;;-141.84;48.32;19163.53;5074778;28;20220;-54
2022/05/26 04:19:16;;;;;;;1.25;0.88;;;16.10;99.90;;;-141.84;48.68;19143.22;5074401;28;20315;-57
2022/05/26 04:24:26;;;;;;;1.15;0.93;;;16.20;99.90;;;-141.84;47.99;19143.22;5074243;28;20201;-54
2022/05/26 04:26:54;;;;;;;2.55;1.05;;;16.30;99.90;;;-141.84;48.22;19192.00;5074143;28;20728;-57
2022/05/26 04:29:23;;;;;;;0.95;0.70;;;16.30;99.90;;;-141.84;47.53;19202.16;5074303;28;20208;-55
2022/05/26 04:31:52;;;;;;;3.15;0.95;;;16.40;99.90;;;-141.84;47.48;19196.06;5074427;28;20263;-54
2022/05/26 04:34:21;;;;;;;2.85;1.00;;;16.50;99.90;;;-141.84;47.29;19175.72;5073923;28;20199;-53
2022/05/26 04:36:50;;;;;;;2.90;0.95;;;16.50;99.90;;;-141.84;47.37;19179.78;5074065;28;20287;-52
2022/05/26 04:39:19;;;;;;;1.15;0.63;;;16.60;99.90;;;-141.84;47.78;19200.13;5073730;28;20319;-54
2022/05/26 04:41:48;;;;;;;1.77;0.82;;;16.60;99.90;;;-141.84;47.03;19210.28;5074281;28;20632;-53
2022/05/26 04:44:19;;;;;;;2.35;1.00;;;16.60;99.90;;;-141.84;47.21;19216.38;5073616;28;20216;-54
2022/05/26 04:46:47;;;;;;;1.60;0.90;;;16.60;99.90;;;-141.84;46.93;19248.88;5074296;28;20207;-56
2022/05/26 04:49:17;;;;;;;0.98;0.80;;;16.70;99.90;;;-141.84;47.58;19204.19;5074427;28;20201;-55
2022/05/26 04:51:45;;;;;;;2.15;1.02;;;16.70;99.90;;;-141.84;47.67;19196.06;5074416;28;20296;-55
2022/05/26 04:54:13;;;;;;;1.25;0.80;;;16.80;99.90;;;-141.84;46.81;19242.78;5073348;28;20254;-56
2022/05/26 04:56:41;;;;;;;2.17;0.90;;;16.80;99.90;;;-141.84;46.31;19273.28;5074135;28;20197;-58
2022/05/26 04:59:09;;;;;;;1.70;1.00;;;17.00;99.90;;;-141.84;46.07;19287.50;5073568;28;20217;-55
2022/05/26 05:01:37;;;;;;;2.60;0.98;;;17.00;99.90;;;-141.84;46.32;19305.78;5074224;28;20288;-54
2022/05/26 05:04:05;;;;;;;1.92;0.75;;;17.20;99.90;;;-141.84;46.12;19317.97;5073910;28;20556;-54
2022/05/26 05:06:35;;;;;;;2.70;1.10;;;17.20;99.90;;;-141.84;46.19;19297.66;5074010;28;20197;-55
2022/05/26 05:09:04;;;;;;;1.73;1.00;;;17.30;99.90;;;-141.84;45.74;19368.78;5073323;28;20657;-55
2022/05/26 05:11:32;;;;;;;2.53;0.90;;;17.30;99.90;;;-141.84;45.44;19330.16;5073675;28;20762;-55
2022/05/26 05:14:03;;;;;;;1.17;0.80;;;17.50;99.90;;;-141.84;45.67;19293.59;5073084;28;20208;-56
2022/05/26 05:16:37;;;;;;;2.28;0.80;;;17.50;99.90;;;-141.84;45.95;19307.81;5073994;28;20189;-54
2022/05/26 05:19:05;;;;;;;1.75;0.70;;;17.50;99.90;;;-141.84;47.25;19226.53;5073912;28;20259;-55
2022/05/26 05:21:42;;;;;;;1.05;0.85;;;17.30;99.90;;;-141.84;47.41;19257.00;5073885;28;20197;-54
2022/05/26 05:24:19;;;;;;;2.38;0.80;;;17.20;99.90;;;-141.84;44.45;19411.44;5073451;28;20185;-57
2022/05/26 05:26:53;;;;;;;1.52;0.90;;;17.70;99.90;;;-141.84;42.04;19569.97;5073519;28;20185;-55
2022/05/26 05:29:27;;;;;;;2.55;1.17;;;18.40;99.90;;;-141.84;41.46;19618.75;5067104;28;20201;-55
2022/05/26 05:32:02;;;;;;;2.88;0.90;;;18.80;99.90;;;-141.84;43.00;19506.97;5054966;28;20643;-55
2022/05/26 05:34:37;;;;;;;4.32;1.00;;;18.80;99.90;;;-141.84;43.53;19517.13;5053205;28;20292;-53
2022/05/26 05:37:10;;;;;;;0.90;0.80;;;18.70;99.90;;;-141.84;43.90;19480.53;5053063;28;20617;-54
2022/05/26 05:39:38;;;;;;;2.35;0.80;;;18.60;99.90;;;-141.84;43.56;19470.38;5052970;28;20222;-54
2022/05/26 05:42:08;;;;;;;0.95;0.90;;;18.70;99.90;;;-141.84;43.90;19443.97;5053000;28;20186;-54
2022/05/26 05:44:37;;;;;;;1.75;0.82;;;18.60;99.90;;;-141.84;43.61;19448.03;5070725;28;20287;-60
2022/05/26 05:47:06;;;;;;;3.13;0.90;;;18.70;99.90;;;-141.84;43.79;19468.34;5073454;28;20639;-55
2022/05/26 05:49:35;;;;;;;2.47;1.10;;;18.60;99.90;;;-141.84;43.47;19480.53;5073000;28;20307;-55
2022/05/26 05:52:11;;;;;;;3.33;0.90;;;18.60;99.90;;;-141.84;43.68;19421.63;5072789;28;20207;-54
2022/05/26 05:54:40;;;;;;;1.52;1.00;;;18.60;99.90;;;-141.84;44.07;19435.84;5072752;28;20185;-55
2022/05/26 05:57:08;;;;;;;2.22;1.02;;;18.50;99.90;;;-141.84;43.95;19450.06;5072437;28;20288;-55
2022/05/26 05:59:36;;;;;;;1.48;0.90;;;18.40;99.90;;;-141.84;44.14;19421.63;5072327;28;20267;-54
2022/05/26 06:02:06;;;;;;;1.10;0.77;;;18.40;99.90;;;-141.84;44.79;19411.44;5072578;28;20199;-56
2022/05/26 06:04:54;;;;;;;1.77;1.05;;;18.30;99.90;;;-141.84;44.78;19419.59;5071265;28;20205;-55
2022/05/26 06:07:24;;;;;;;1.88;0.80;;;18.40;99.90;;;-141.84;44.97;19476.47;5072473;28;20236;-56
2022/05/26 06:09:53;;;;;;;2.58;0.98;;;18.50;99.90;;;-141.84;44.05;19484.59;5072270;28;20208;-57
2022/05/26 06:12:22;;;;;;;2.58;1.13;;;18.70;99.90;;;-141.84;43.85;19478.50;5072259;28;20262;-55
2022/05/26 06:14:50;;;;;;;3.70;0.90;;;18.70;99.90;;;-141.84;43.91;19441.94;5072163;28;20331;-55
2022/05/26 06:17:19;;;;;;;1.45;0.95;;;18.70;99.90;;;-141.84;44.91;19452.09;5072441;28;20207;-55
2022/05/26 06:19:47;;;;;;;0.82;0.80;;;18.70;99.90;;;-141.84;44.74;19427.72;5072330;28;20220;-57
2022/05/26 06:22:19;;;;;;;2.65;0.80;;;18.60;99.90;;;-141.84;45.69;19370.81;5072064;28;20572;-56
2022/05/26 06:24:49;;;;;;;1.08;0.98;;;18.40;99.90;;;-141.84;45.41;19389.09;5072258;28;20265;-57
2022/05/26 06:30:10;;;;;;;1.45;0.80;;;18.50;99.90;;;-141.84;45.57;19383.00;5072045;28;20268;-57
2022/05/26 06:38:20;;;;;;;1.33;0.70;;;18.70;99.90;;;-141.84;44.90;19472.41;5071281;28;20185;-57
2022/05/26 06:40:50;;;;;;;0.85;0.85;;;19.00;99.90;;;-141.84;44.32;19539.47;5070847;28;20312;-56
2022/05/26 06:43:20;;;;;;;1.00;0.98;;;19.20;99.90;;;-141.84;43.97;19490.72;5071088;28;20295;-55
2022/05/26 06:45:49;;;;;;;1.60;1.10;;;19.30;99.90;;;-141.84;44.32;19527.28;5072200;28;20201;-55
2022/05/26 06:48:18;;;;;;;1.20;0.93;;;19.20;99.90;;;-141.84;44.38;19525.25;5072179;28;20258;-55
2022/05/26 06:50:46;;;;;;;3.33;1.10;;;19.30;99.90;;;-141.84;43.99;19529.31;5071729;28;20743;-57
2022/05/26 06:53:14;;;;;;;2.03;1.00;;;19.30;99.90;;;-141.84;44.12;19549.63;5071705;28;20205;-54
2022/05/26 06:55:42;;;;;;;1.77;0.95;;;19.30;99.90;;;-141.84;44.02;19502.91;5071655;28;20219;-55
2022/05/26 06:58:11;;;;;;;1.77;0.98;;;19.30;99.90;;;-141.84;45.19;19486.66;5071866;28;20284;-57
2022/05/26 07:00:39;;;;;;;1.10;1.00;;;19.10;99.90;;;-141.84;44.80;19484.59;5071840;28;20235;-55
2022/05/26 07:03:07;;;;;;;2.08;1.20;;;19.20;99.90;;;-141.84;44.05;19531.34;5072210;28;20295;-56
2022/05/26 07:05:37;;;;;;;3.58;0.90;;;19.40;99.90;;;-141.84;43.77;19561.84;5072129;28;20197;-54
2022/05/26 07:08:05;;;;;;;1.70;0.95;;;19.40;99.90;;;-141.84;44.09;19531.34;5071652;28;20664;-55
2022/05/26 07:10:34;;;;;;;3.13;1.45;;;19.40;99.90;;;-141.84;44.04;19529.31;5071624;28;20207;-58
2022/05/26 07:13:02;;;;;;;1.65;0.90;;;19.40;99.90;;;-141.84;43.90;19509.00;5071381;28;20301;-54
2022/05/26 07:15:33;;;;;;;1.20;1.10;;;19.50;99.90;;;-141.84;44.59;19492.75;5071605;28;20239;-59
2022/05/26 07:18:05;;;;;;;2.60;0.95;;;19.40;99.90;;;-141.84;44.44;19533.38;5075698;28;20828;-56
2022/05/26 07:20:36;;;;;;;4.75;1.10;;;19.50;99.90;;;-141.84;44.32;19498.84;5075530;28;20207;-56
2022/05/26 07:23:07;;;;;;;1.45;0.95;;;19.50;99.90;;;-141.84;44.13;19519.16;5075790;28;20268;-57
2022/05/26 07:25:40;;;;;;;2.03;1.00;;;19.60;99.90;;;-141.84;44.06;19513.06;5075155;28;20187;-57
2022/05/26 07:28:09;;;;;;;3.00;0.90;;;19.50;99.90;;;-141.84;44.16;19533.38;5075530;28;20271;-57
2022/05/26 07:30:38;;;;;;;1.80;1.10;;;19.60;99.90;;;-141.84;45.11;19462.25;5075307;28;20235;-55
2022/05/26 07:33:06;;;;;;;2.20;1.10;;;19.40;99.90;;;-141.84;45.33;19452.09;5075677;28;20200;-58
2022/05/26 07:35:34;;;;;;;1.70;1.10;;;19.20;99.90;;;-141.84;45.00;19443.97;5075758;28;20208;-54
2022/05/26 07:43:36;;;;;;;3.25;1.00;;;19.00;99.90;;;-141.84;46.10;19425.69;5075007;28;20300;-56
2022/05/26 07:46:06;;;;;;;0.98;0.98;;;18.90;99.90;;;-141.84;45.59;19421.63;5075198;28;20254;-57
2022/05/26 07:48:34;;;;;;;1.30;1.02;;;18.90;99.90;;;-141.84;45.75;19395.19;5075133;28;20203;-57
2022/05/26 07:51:02;;;;;;;2.55;1.10;;;18.90;99.90;;;-141.84;45.94;19448.03;5075244;28;20295;-57
2022/05/26 07:53:30;;;;;;;2.65;1.10;;;19.00;99.90;;;-141.84;45.33;19435.84;5075432;28;20300;-57
2022/05/26 07:56:00;;;;;;;1.42;0.95;;;19.00;99.90;;;-141.84;45.67;19421.63;5074710;28;20199;-57
2022/05/26 07:58:28;;;;;;;1.20;0.93;;;19.00;99.90;;;-141.84;45.66;19417.56;5075076;28;20680;-54
2022/05/26 08:00:56;;;;;;;3.10;1.15;;;18.90;99.90;;;-141.84;46.23;19380.97;5075043;28;20235;-58
2022/05/26 08:03:25;;;;;;;1.50;1.20;;;18.90;99.90;;;-141.84;46.18;19407.38;5074375;28;20205;-55
2022/05/26 08:05:54;;;;;;;1.77;1.30;;;19.00;99.90;;;-141.84;45.75;19450.06;5074886;28;20204;-53
2022/05/26 08:08:22;;;;;;;1.65;1.23;;;19.20;99.90;;;-141.84;44.75;19500.88;5074550;28;20205;-56
2022/05/26 08:10:50;;;;;;;1.48;1.00;;;19.40;99.90;;;-141.84;44.07;19565.91;5074708;28;20288;-55
2022/05/26 08:13:19;;;;;;;1.25;1.10;;;19.70;99.90;;;-141.84;43.25;19594.34;5074728;28;20205;-57
2022/05/26 08:15:49;;;;;;;1.52;1.00;;;19.90;99.90;;;-141.84;43.38;19569.97;5075030;28;20201;-54
2022/05/26 08:18:17;;;;;;;3.15;1.40;;;20.10;99.90;;;-141.84;43.95;19590.28;5075057;28;20200;-57
2022/05/26 08:20:46;;;;;;;1.48;1.30;;;20.00;99.90;;;-141.84;43.64;19580.13;5074938;28;20227;-57
2022/05/26 08:23:23;;;;;;;1.85;1.13;;;20.00;99.90;;;-141.84;43.35;19624.84;5074704;28;20192;-58
2022/05/26 08:25:51;;;;;;;0.85;0.85;;;20.30;99.90;;;-141.84;42.34;19679.72;5074111;28;20696;-59
2022/05/26 08:28:19;;;;;;;2.17;1.10;;;20.60;99.90;;;-141.84;42.18;19673.59;5074179;28;20231;-55
2022/05/26 08:30:46;;;;;;;1.40;1.30;;;20.80;99.90;;;-141.84;42.11;19641.09;5074173;28;20771;-56
2022/05/26 08:33:14;;;;;;;1.52;1.10;;;20.80;99.90;;;-141.84;42.08;19728.47;5074401;28;20226;-54
2022/05/26 08:35:43;;;;;;;1.67;1.25;;;20.80;99.90;;;-141.84;42.46;19679.72;5074571;28;20308;-53
2022/05/26 08:38:12;;;;;;;1.55;1.10;;;20.80;99.90;;;-141.84;41.96;19691.91;5074330;28;20205;-59
2022/05/26 08:40:44;;;;;;;1.80;1.17;;;20.90;99.90;;;-141.84;41.21;19732.53;5073772;28;20220;-57
2022/05/26 08:43:20;;;;;;;1.20;0.82;;;21.10;99.90;;;-141.84;40.92;19793.50;5074280;28;20197;-58
2022/05/26 08:45:52;;;;;;;1.30;1.20;;;21.20;99.90;;;-141.84;41.29;19777.25;5074476;28;20181;-59
2022/05/26 08:48:43;;;;;;;4.03;1.40;;;21.30;99.90;;;-141.84;41.58;19756.94;5074289;28;20203;-55
2022/05/26 08:51:23;;;;;;;3.38;1.10;;;21.20;99.90;;;-141.84;41.75;19742.72;5074084;28;20803;-59
2022/05/26 08:53:56;;;;;;;1.50;1.40;;;21.20;99.90;;;-141.84;41.52;19728.47;5074152;28;20196;-58
2022/05/26 08:56:28;;;;;;;1.25;1.00;;;21.10;99.90;;;-141.84;41.76;19767.09;5073830;28;20191;-59
2022/05/26 08:59:04;;;;;;;1.60;1.00;;;21.10;99.90;;;-141.84;41.79;19773.19;5073817;28;20247;-58
2022/05/26 09:01:33;;;;;;;1.30;1.00;;;21.10;99.90;;;-141.84;41.14;19777.25;5072261;28;20221;-53
2022/05/26 09:04:02;;;;;;;1.38;1.20;;;21.30;99.90;;;-141.84;40.85;19761.00;5074325;28;20197;-57
2022/05/26 09:12:55;;;;;;;2.05;0.95;;;21.30;99.90;;;-141.84;42.11;19685.81;5074293;28;20708;-54
2022/05/26 09:15:04;;;;;;;2.30;1.10;;;20.80;99.90;;;-141.84;42.57;19675.63;5066712;28;20197;-56
2022/05/26 09:17:32;;;;;;;2.83;1.10;;;20.80;99.90;;;-141.84;42.46;19663.44;5073595;28;20199;-57
2022/05/26 09:20:04;;;;;;;1.98;1.20;;;20.80;99.90;;;-141.84;42.35;19706.13;5073180;28;20197;-56
2022/05/26 09:22:41;;;;;;;1.60;1.10;;;20.70;99.90;;;-141.84;42.81;19704.09;5072798;28;20740;-56
2022/05/26 09:25:30;;;;;;;1.48;1.00;;;20.80;99.90;;;-141.84;42.43;19712.22;5072112;28;20216;-56
2022/05/26 09:27:58;;;;;;;2.03;1.38;;;20.80;99.90;;;-141.84;41.15;19777.25;5073100;28;20188;-57
2022/05/26 09:30:30;;;;;;;1.10;1.00;;;21.30;99.90;;;-141.84;41.08;19769.13;5073763;28;20203;-59
2022/05/26 09:32:59;;;;;;;3.08;1.30;;;21.40;99.90;;;-141.84;41.64;19732.53;5073348;28;20187;-58
2022/05/26 09:35:31;;;;;;;2.13;1.13;;;21.30;99.90;;;-141.84;42.04;19730.50;5072929;28;20653;-53
2022/05/26 09:38:02;;;;;;;2.08;1.10;;;21.40;99.90;;;-141.84;41.47;19732.53;5072432;28;20299;-57
2022/05/26 09:40:40;;;;;;;2.03;1.10;;;21.20;99.90;;;-141.84;42.61;19685.81;5072475;28;20200;-57
2022/05/26 09:43:24;;;;;;;3.15;1.02;;;21.10;99.90;;;-141.84;42.10;19687.84;5070849;28;20272;-57
2022/05/26 09:45:56;;;;;;;1.27;1.17;;;21.10;99.90;;;-141.84;42.90;19679.72;5070817;28;20193;-57
2022/05/26 09:48:31;;;;;;;2.63;1.30;;;21.00;99.90;;;-141.84;42.50;19724.41;5072493;28;20184;-55
2022/05/26 09:51:12;;;;;;;1.30;1.20;;;21.00;99.90;;;-141.84;42.85;19708.16;5072093;28;20625;-63
2022/05/26 09:53:45;;;;;;;2.88;1.20;;;21.00;99.90;;;-141.84;42.51;19653.28;5071484;28;20220;-62
2022/05/26 09:56:32;;;;;;;1.65;1.27;;;20.80;99.90;;;-141.84;43.59;19555.75;5070675;28;20192;-63
2022/05/26 09:59:20;;;;;;;1.83;1.25;;;20.50;99.90;;;-141.84;44.31;19614.66;5072974;28;20242;-64
2022/05/26 10:01:51;;;;;;;1.77;1.30;;;20.40;99.90;;;-141.84;43.28;19679.72;5071634;28;20692;-63
2022/05/26 10:04:52;;;;;;;2.75;1.48;;;20.60;99.90;;;-141.84;44.31;19572.00;5072956;28;20189;-62
2022/05/26 10:07:32;;;;;;;1.42;1.10;;;20.20;99.90;;;-141.84;44.71;19533.38;5072481;28;20632;-63
2022/05/26 10:10:12;;;;;;;2.95;1.30;;;20.20;99.90;;;-141.84;44.43;19533.38;5072396;28;20180;-63
2022/05/26 10:12:56;;;;;;;2.00;1.40;;;20.20;99.90;;;-141.84;44.63;19561.84;5070051;28;20211;-63
2022/05/26 10:15:45;;;;;;;1.48;1.38;;;20.30;99.90;;;-141.84;44.75;19586.22;5070908;28;20196;-63
2022/05/26 10:18:40;;;;;;;1.60;1.20;;;20.40;99.90;;;-141.84;43.52;19679.72;5070646;28;20185;-63
2022/05/26 10:21:29;;;;;;;2.83;1.45;;;20.70;99.90;;;-141.84;42.56;19716.28;5070848;28;20197;-64
2022/05/26 10:24:36;;;;;;;3.03;1.50;;;21.00;99.90;;;-141.84;42.16;19748.81;5070245;28;20181;-65
2022/05/26 10:27:23;;;;;;;2.15;1.80;;;21.10;99.90;;;-141.84;42.01;19742.72;5054883;28;20272;-64
2022/05/26 10:30:07;;;;;;;1.85;1.50;;;21.30;99.90;;;-141.84;41.52;19728.47;5071329;28;20624;-64
2022/05/26 10:32:47;;;;;;;4.68;1.60;;;21.30;99.90;;;-141.84;41.53;19775.22;5072271;28;20195;-63
2022/05/26 10:35:24;;;;;;;2.33;2.13;;;21.30;99.90;;;-141.84;42.07;19744.75;5071373;28;20181;-65
2022/05/26 10:38:11;;;;;;;1.52;1.42;;;21.20;99.90;;;-141.84;42.94;19653.28;5069917;28;20193;-65
2022/05/26 10:40:54;;;;;;;2.90;1.80;;;21.10;99.90;;;-141.84;42.80;19653.28;5069795;28;20203;-65
2022/05/26 10:43:27;;;;;;;2.13;1.60;;;20.90;99.90;;;-141.84;43.66;19614.66;5070759;28;20292;-65
2022/05/26 10:46:00;;;;;;;2.42;1.70;;;20.60;99.90;;;-141.84;44.25;19590.28;5070917;28;20189;-64
2022/05/26 10:48:38;;;;;;;2.67;1.52;;;20.70;99.90;;;-141.84;43.86;19596.38;5071436;28;20254;-64
2022/05/26 10:51:15;;;;;;;2.60;1.30;;;20.70;99.90;;;-141.84;44.61;19565.91;5070514;28;20528;-65
2022/05/26 10:53:51;;;;;;;1.70;1.58;;;20.60;99.90;;;-141.84;45.07;19594.34;5070554;28;20196;-66
2022/05/26 10:56:29;;;;;;;2.45;1.38;;;20.50;99.90;;;-141.84;44.40;19549.63;5071973;28;20258;-63
2022/05/26 10:59:13;;;;;;;1.52;1.40;;;20.50;99.90;;;-141.84;44.52;19578.09;5071769;28;20659;-63
2022/05/26 11:01:49;;;;;;;5.55;1.40;;;20.50;99.90;;;-141.84;44.33;19580.13;5071858;28;20204;-64
2022/05/26 11:04:27;;;;;;;1.58;1.48;;;20.50;99.90;;;-141.84;44.25;19616.72;5071960;28;20188;-64